createdAt,value
2019-01-25T00:00:59.532Z,97844.34
2019-01-25T00:03:39.092Z,97841.13
2019-01-25T00:06:15.021Z,97838.66
2019-01-25T00:08:49.692Z,97839.11
2019-01-25T00:11:24.595Z,97834.91
2019-01-25T00:13:56.469Z,97841.27
2019-01-25T00:16:30.066Z,97846.39
2019-01-25T00:19:01.930Z,97843.42
2019-01-25T00:21:33.815Z,97848.55
2019-01-25T00:24:06.540Z,97848.36
2019-01-25T00:26:38.381Z,97852.52
2019-01-25T00:29:10.371Z,97853.44
2019-01-25T00:31:46.605Z,97855.86
2019-01-25T00:34:18.449Z,97858.09
2019-01-25T00:36:50.319Z,97854.03
2019-01-25T00:39:27.532Z,97859.28
2019-01-25T00:42:03.461Z,97864.99
2019-01-25T00:44:37.064Z,97863.02
2019-01-25T00:47:10.077Z,97864.39
2019-01-25T00:49:49.176Z,97860.19
2019-01-25T00:52:20.997Z,97862.11
2019-01-25T00:54:57.179Z,97862.61
2019-01-25T00:57:33.702Z,97863.11
2019-01-25T01:00:21.395Z,97861.01
2019-01-25T01:02:53.229Z,97862.38
2019-01-25T01:05:25.617Z,97859.08
2019-01-25T01:07:57.485Z,97859.30
2019-01-25T01:10:29.358Z,97858.80
2019-01-25T01:13:06.487Z,97859.95
2019-01-25T01:15:37.431Z,97860.36
2019-01-25T01:18:09.253Z,97861.19
2019-01-25T01:20:42.772Z,97865.84
2019-01-25T01:23:14.633Z,97870.38
2019-01-25T01:25:46.532Z,97873.63
2019-01-25T01:28:18.397Z,97882.13
2019-01-25T01:30:51.421Z,97880.89
2019-01-25T01:33:25.299Z,97883.78
2019-01-25T01:36:04.606Z,97884.60
2019-01-25T01:38:41.659Z,97885.48
2019-01-25T01:41:13.536Z,97885.02
2019-01-25T01:43:47.496Z,97889.73
2019-01-25T01:46:23.879Z,97888.33
2019-01-25T01:48:58.308Z,97895.58
2019-01-25T01:51:30.182Z,97888.96
2019-01-25T01:54:03.664Z,97889.87
2019-01-25T01:56:37.288Z,97893.17
2019-01-25T01:59:11.190Z,97895.27
2019-01-25T02:01:45.791Z,97894.69
2019-01-25T02:04:17.663Z,97892.63
2019-01-25T02:06:49.659Z,97892.13
2019-01-25T02:09:21.518Z,97888.55
2019-01-25T02:11:53.381Z,97888.96
2019-01-25T02:14:27.529Z,97881.47
2019-01-25T02:16:59.562Z,97885.23
2019-01-25T02:19:33.195Z,97883.16
2019-01-25T02:22:07.136Z,97890.44
2019-01-25T02:24:41.930Z,97879.77
2019-01-25T02:27:22.626Z,97881.84
2019-01-25T02:29:54.459Z,97879.28
2019-01-25T02:32:29.310Z,97882.20
2019-01-25T02:35:01.128Z,97869.48
2019-01-25T02:37:32.971Z,97876.22
2019-01-25T02:40:07.492Z,97876.27
2019-01-25T02:42:43.249Z,97870.41
2019-01-25T02:45:15.777Z,97872.55
2019-01-25T02:47:47.706Z,97875.11
2019-01-25T02:50:20.207Z,97870.62
2019-01-25T02:52:53.881Z,97871.41
2019-01-25T02:55:25.717Z,97871.41
2019-01-25T02:57:57.590Z,97875.75
2019-01-25T03:00:33.640Z,97878.90
2019-01-25T03:03:05.739Z,97879.98
2019-01-25T03:05:37.585Z,97875.27
2019-01-25T03:08:09.480Z,97872.92
2019-01-25T03:10:47.209Z,97875.31
2019-01-25T03:13:18.481Z,97874.66
2019-01-25T03:15:50.317Z,97883.24
2019-01-25T03:18:22.204Z,97883.24
2019-01-25T03:20:54.064Z,97888.45
2019-01-25T03:23:27.744Z,97883.73
2019-01-25T03:25:59.666Z,97884.52
2019-01-25T03:28:31.525Z,97885.52
2019-01-25T03:31:03.435Z,97888.69
2019-01-25T03:33:35.273Z,97887.33
2019-01-25T03:36:07.157Z,97891.05
2019-01-25T03:38:40.733Z,97886.12
2019-01-25T03:41:12.583Z,97891.81
2019-01-25T03:43:44.414Z,97897.42
2019-01-25T03:46:17.480Z,97897.91
2019-01-25T03:48:50.929Z,97899.76
2019-01-25T03:51:22.777Z,97892.39
2019-01-25T03:53:54.613Z,97891.31
2019-01-25T03:56:26.442Z,97893.94
2019-01-25T03:58:58.371Z,97887.70
2019-01-25T04:01:30.229Z,97890.28
2019-01-25T04:04:02.088Z,97897.30
2019-01-25T04:06:33.958Z,97891.92
2019-01-25T04:09:10.518Z,97894.23
2019-01-25T04:11:42.376Z,97899.58
2019-01-25T04:14:14.249Z,97902.69
2019-01-25T04:16:46.115Z,97896.06
2019-01-25T04:19:17.961Z,97901.66
2019-01-25T04:21:49.819Z,97905.63
2019-01-25T04:24:22.048Z,97907.70
2019-01-25T04:26:53.883Z,97915.08
2019-01-25T04:29:25.831Z,97916.06
2019-01-25T04:31:57.663Z,97916.14
2019-01-25T04:34:29.515Z,97919.62
2019-01-25T04:37:01.389Z,97920.64
2019-01-25T04:39:33.228Z,97920.32
2019-01-25T04:42:05.095Z,97918.73
2019-01-25T04:44:36.953Z,97925.30
2019-01-25T04:47:08.818Z,97925.77
2019-01-25T04:49:40.704Z,97926.28
2019-01-25T04:52:15.937Z,97935.11
2019-01-25T04:54:47.824Z,97937.48
2019-01-25T04:57:19.709Z,97937.92
2019-01-25T04:59:51.512Z,97929.59
2019-01-25T05:02:23.360Z,97936.74
2019-01-25T05:04:55.199Z,97941.14
2019-01-25T05:07:27.040Z,97943.37
2019-01-25T05:09:58.899Z,97946.62
2019-01-25T05:12:30.750Z,97941.23
2019-01-25T05:15:03.984Z,97943.22
2019-01-25T05:17:36.920Z,97942.09
2019-01-25T05:20:09.216Z,97940.01
2019-01-25T05:22:41.060Z,97945.33
2019-01-25T05:25:12.924Z,97946.36
2019-01-25T05:27:46.803Z,97947.52
2019-01-25T05:30:27.022Z,97958.33
2019-01-25T05:33:02.483Z,97958.63
2019-01-25T05:35:39.500Z,97958.69
2019-01-25T05:38:16.936Z,97960.57
2019-01-25T05:40:51.673Z,97959.76
2019-01-25T05:43:29.214Z,97964.58
2019-01-25T05:46:07.766Z,97966.16
2019-01-25T05:48:48.331Z,97964.39
2019-01-25T05:51:25.409Z,97966.72
2019-01-25T05:53:57.270Z,97971.74
2019-01-25T05:56:29.132Z,97967.80
2019-01-25T05:59:02.440Z,97970.64
2019-01-25T06:01:42.401Z,97966.98
2019-01-25T06:04:14.476Z,97973.30
2019-01-25T06:06:46.298Z,97967.39
2019-01-25T06:09:25.240Z,97975.09
2019-01-25T06:11:57.059Z,97973.87
2019-01-25T06:14:28.948Z,97973.06
2019-01-25T06:17:02.220Z,97976.81
2019-01-25T06:19:43.110Z,97984.20
2019-01-25T06:22:17.682Z,97979.99
2019-01-25T06:24:51.481Z,97984.94
2019-01-25T06:27:25.050Z,97989.64
2019-01-25T06:29:59.360Z,97994.81
2019-01-25T06:32:31.902Z,97994.06
2019-01-25T06:35:03.735Z,97994.79
2019-01-25T06:37:35.595Z,97991.07
2019-01-25T06:40:12.331Z,97988.94
2019-01-25T06:42:44.197Z,97995.05
2019-01-25T06:45:18.145Z,97986.13
2019-01-25T06:47:50.889Z,97996.23
2019-01-25T06:50:22.722Z,97995.19
2019-01-25T06:52:57.713Z,97999.22
2019-01-25T06:55:32.505Z,98006.26
2019-01-25T06:58:26.255Z,98002.83
2019-01-25T07:01:25.986Z,98006.28
2019-01-25T07:03:57.848Z,98011.91
2019-01-25T07:06:32.547Z,98020.31
2019-01-25T07:09:07.776Z,98030.12
2019-01-25T07:11:42.321Z,98030.12
2019-01-25T07:14:18.988Z,98037.85
2019-01-25T07:16:50.864Z,98035.22
2019-01-25T07:19:24.207Z,98043.23
2019-01-25T07:21:56.055Z,98037.77
2019-01-25T07:24:38.556Z,98044.30
2019-01-25T07:27:11.765Z,98044.70
2019-01-25T07:29:49.668Z,98048.89
2019-01-25T07:32:21.500Z,98050.06
2019-01-25T07:34:53.385Z,98057.23
2019-01-25T07:37:25.267Z,98057.19
2019-01-25T07:39:57.260Z,98062.19
2019-01-25T07:42:30.468Z,98071.89
2019-01-25T07:45:05.244Z,98067.16
2019-01-25T07:47:37.195Z,98073.01
2019-01-25T07:50:12.238Z,98066.13
2019-01-25T07:52:51.229Z,98060.92
2019-01-25T07:55:25.880Z,98066.80
2019-01-25T07:57:58.923Z,98065.47
2019-01-25T08:00:30.833Z,98072.66
2019-01-25T08:03:02.679Z,98071.31
2019-01-25T08:05:35.071Z,98077.23
2019-01-25T08:08:07.027Z,98082.83
2019-01-25T08:10:38.920Z,98076.90
2019-01-25T08:13:17.471Z,98073.45
2019-01-25T08:15:51.445Z,98074.29
2019-01-25T08:18:30.551Z,98081.03
2019-01-25T08:21:02.548Z,98074.62
2019-01-25T08:23:34.445Z,98069.88
2019-01-25T08:26:10.408Z,98067.27
2019-01-25T08:28:42.355Z,98071.36
2019-01-25T08:31:18.835Z,98073.50
2019-01-25T08:33:50.756Z,98082.64
2019-01-25T08:36:26.436Z,98095.45
2019-01-25T08:38:58.282Z,98086.51
2019-01-25T08:41:32.350Z,98084.91
2019-01-25T08:44:04.332Z,98089.06
2019-01-25T08:46:38.760Z,98087.56
2019-01-25T08:49:10.827Z,98086.02
2019-01-25T08:51:42.651Z,98084.48
2019-01-25T08:54:16.354Z,98095.16
2019-01-25T08:56:49.256Z,98092.05
2019-01-25T08:59:21.173Z,98102.59
2019-01-25T09:01:52.958Z,98099.30
2019-01-25T09:04:24.818Z,98092.34
2019-01-25T09:06:57.939Z,98089.88
2019-01-25T09:09:30.991Z,98099.41
2019-01-25T09:12:03.935Z,98104.14
2019-01-25T09:14:35.782Z,98103.28
2019-01-25T09:17:13.958Z,98110.87
2019-01-25T09:19:52.671Z,98103.42
2019-01-25T09:22:28.599Z,98099.72
2019-01-25T09:25:00.516Z,98099.52
2019-01-25T09:27:32.330Z,98096.72
2019-01-25T09:30:04.251Z,98095.68
2019-01-25T09:32:36.107Z,98097.63
2019-01-25T09:35:08.763Z,98101.00
2019-01-25T09:37:40.990Z,98102.24
2019-01-25T09:40:21.531Z,98096.28
2019-01-25T09:42:54.046Z,98093.64
2019-01-25T09:45:25.905Z,98099.74
2019-01-25T09:47:57.773Z,98102.78
2019-01-25T09:50:33.340Z,98103.89
2019-01-25T09:53:05.367Z,98117.03
2019-01-25T09:55:37.194Z,98119.18
2019-01-25T09:58:13.013Z,98123.77
2019-01-25T10:01:03.152Z,98115.33
2019-01-25T10:03:35.005Z,98113.30
2019-01-25T10:06:06.827Z,98114.11
2019-01-25T10:08:40.443Z,98114.53
2019-01-25T10:11:12.264Z,98113.60
2019-01-25T10:13:44.092Z,98120.23
2019-01-25T10:16:18.863Z,98123.48
2019-01-25T10:18:50.689Z,98127.98
2019-01-25T10:21:22.518Z,98129.61
2019-01-25T10:23:54.375Z,98122.64
2019-01-25T10:26:26.202Z,98125.56
2019-01-25T10:28:58.032Z,98127.44
2019-01-25T10:31:29.869Z,98119.47
2019-01-25T10:34:02.797Z,98127.80
2019-01-25T10:36:34.708Z,98121.32
2019-01-25T10:39:09.405Z,98135.13
2019-01-25T10:41:41.270Z,98127.47
2019-01-25T10:44:13.118Z,98133.89
2019-01-25T10:46:45.019Z,98130.41
2019-01-25T10:49:18.109Z,98136.57
2019-01-25T10:51:49.958Z,98135.84
2019-01-25T10:54:21.775Z,98135.50
2019-01-25T10:56:53.854Z,98130.52
2019-01-25T10:59:25.692Z,98120.02
2019-01-25T11:01:57.566Z,98119.94
2019-01-25T11:04:29.400Z,98117.94
2019-01-25T11:07:01.239Z,98114.36
2019-01-25T11:09:37.915Z,98101.20
2019-01-25T11:12:06.707Z,98088.45
2019-01-25T11:14:38.577Z,98087.50
2019-01-25T11:17:10.456Z,98085.45
2019-01-25T11:19:42.346Z,98088.13
2019-01-25T11:22:14.160Z,98073.86
2019-01-25T11:24:46.017Z,98078.55
2019-01-25T11:27:17.861Z,98078.48
2019-01-25T11:29:51.791Z,98084.98
2019-01-25T11:32:23.666Z,98081.92
2019-01-25T11:34:55.707Z,98086.16
2019-01-25T11:37:28.639Z,98080.64
2019-01-25T11:40:01.489Z,98089.75
2019-01-25T11:42:33.419Z,98081.92
2019-01-25T11:45:05.792Z,98083.27
2019-01-25T11:47:37.637Z,98071.69
2019-01-25T11:50:12.441Z,98073.45
2019-01-25T11:52:44.311Z,98075.88
2019-01-25T11:55:16.669Z,98077.22
2019-01-25T11:57:48.605Z,98076.67
2019-01-25T12:00:23.598Z,98080.70
2019-01-25T12:02:55.509Z,98084.58
2019-01-25T12:05:27.755Z,98089.91
2019-01-25T12:07:59.594Z,98095.31
2019-01-25T12:10:32.974Z,98093.39
2019-01-25T12:13:05.825Z,98092.37
2019-01-25T12:15:37.640Z,98091.20
2019-01-25T12:18:09.488Z,98099.34
2019-01-25T12:20:41.368Z,98100.69
2019-01-25T12:23:13.217Z,98091.09
2019-01-25T12:25:45.094Z,98092.11
2019-01-25T12:28:16.925Z,98094.94
2019-01-25T12:30:48.816Z,98090.98
2019-01-25T12:33:22.067Z,98091.63
2019-01-25T12:35:56.939Z,98097.69
2019-01-25T12:38:29.983Z,98095.06
2019-01-25T12:41:03.895Z,98091.41
2019-01-25T12:43:35.735Z,98096.73
2019-01-25T12:46:07.600Z,98093.94
2019-01-25T12:48:39.420Z,98098.40
2019-01-25T12:51:49.413Z,98090.39
2019-01-25T12:54:21.253Z,98097.63
2019-01-25T12:56:56.173Z,98094.60
2019-01-25T12:59:28.103Z,98101.92
2019-01-25T13:02:01.725Z,98094.48
2019-01-25T13:04:33.554Z,98095.88
2019-01-25T13:07:05.547Z,98098.14
2019-01-25T13:09:37.485Z,98101.44
2019-01-25T13:12:09.349Z,98093.48
2019-01-25T13:14:41.171Z,98098.29
2019-01-25T13:17:13.044Z,98094.03
2019-01-25T13:19:47.284Z,98089.34
2019-01-25T13:22:19.118Z,98096.66
2019-01-25T13:24:50.961Z,98095.37
2019-01-25T13:27:25.294Z,98093.31
2019-01-25T13:30:01.644Z,98092.28
2019-01-25T13:32:38.207Z,98089.22
2019-01-25T13:35:10.144Z,98088.53
2019-01-25T13:37:42.077Z,98085.66
2019-01-25T13:40:16.944Z,98071.73
2019-01-25T13:42:49.098Z,98080.37
2019-01-25T13:45:21.621Z,98080.27
2019-01-25T13:47:53.734Z,98073.27
2019-01-25T13:50:27.590Z,98073.07
2019-01-25T13:52:59.853Z,98077.48
2019-01-25T13:55:36.878Z,98081.56
2019-01-25T13:58:10.334Z,98080.17
2019-01-25T14:00:42.205Z,98078.77
2019-01-25T14:03:14.043Z,98084.91
2019-01-25T14:05:50.861Z,98089.69
2019-01-25T14:08:22.619Z,98084.02
2019-01-25T14:10:57.619Z,98093.86
2019-01-25T14:13:34.102Z,98089.58
2019-01-25T14:16:04.076Z,98106.68
2019-01-25T14:18:35.972Z,98110.31
2019-01-25T14:21:07.854Z,98112.81
2019-01-25T14:23:42.880Z,98107.55
2019-01-25T14:26:17.634Z,98107.73
2019-01-25T14:28:49.562Z,98105.87
2019-01-25T14:31:25.036Z,98102.28
2019-01-25T14:33:56.892Z,98104.46
2019-01-25T14:36:28.756Z,98099.23
2019-01-25T14:39:08.002Z,98105.28
2019-01-25T14:41:42.913Z,98110.00
2019-01-25T14:44:18.559Z,98111.94
2019-01-25T14:46:50.543Z,98110.95
2019-01-25T14:49:22.387Z,98108.03
2019-01-25T14:51:55.378Z,98104.04
2019-01-25T14:54:29.900Z,98103.80
2019-01-25T14:57:01.736Z,98099.81
2019-01-25T14:59:34.770Z,98101.96
2019-01-25T15:02:06.661Z,98108.71
2019-01-25T15:04:40.046Z,98108.22
2019-01-25T15:07:15.503Z,98110.22
2019-01-25T15:09:47.395Z,98110.49
2019-01-25T15:12:21.022Z,98112.73
2019-01-25T15:14:52.947Z,98101.84
2019-01-25T15:17:26.878Z,98100.12
2019-01-25T15:20:01.859Z,98106.99
2019-01-25T15:22:37.662Z,98102.95
2019-01-25T15:25:09.630Z,98102.89
2019-01-25T15:27:41.531Z,98092.17
2019-01-25T15:30:23.317Z,98096.77
2019-01-25T15:32:55.369Z,98089.99
2019-01-25T15:35:29.689Z,98096.89
2019-01-25T15:38:03.442Z,98097.66
2019-01-25T15:40:35.487Z,98101.52
2019-01-25T15:43:10.226Z,98097.95
2019-01-25T15:45:46.531Z,98103.81
2019-01-25T15:48:19.400Z,98120.95
2019-01-25T15:50:51.212Z,98112.63
2019-01-25T15:53:23.033Z,98111.13
2019-01-25T15:55:57.964Z,98110.41
2019-01-25T15:58:29.816Z,98112.33
2019-01-25T16:01:03.915Z,98108.64
2019-01-25T16:03:35.822Z,98107.64
2019-01-25T16:06:10.828Z,98106.06
2019-01-25T16:08:50.407Z,98112.84
2019-01-25T16:11:33.813Z,98117.72
2019-01-25T16:14:04.523Z,98123.45
2019-01-25T16:16:41.318Z,98121.52
2019-01-25T16:19:22.746Z,98123.84
2019-01-25T16:21:58.608Z,98128.22
2019-01-25T16:24:32.579Z,98141.29
2019-01-25T16:27:10.310Z,98127.70
2019-01-25T16:29:42.182Z,98124.70
2019-01-25T16:32:15.245Z,98130.57
2019-01-25T16:34:58.163Z,98120.04
2019-01-25T16:37:30.074Z,98123.34
2019-01-25T16:40:02.014Z,98117.72
2019-01-25T16:42:45.915Z,98115.36
2019-01-25T16:45:25.969Z,98113.11
2019-01-25T16:47:57.882Z,98127.09
2019-01-25T16:50:31.089Z,98125.54
2019-01-25T16:53:07.808Z,98121.47
2019-01-25T16:55:43.630Z,98120.13
2019-01-25T16:58:15.584Z,98123.68
2019-01-25T17:00:54.008Z,98119.60
2019-01-25T17:03:25.891Z,98118.20
2019-01-25T17:05:57.728Z,98114.23
2019-01-25T17:08:32.374Z,98128.68
2019-01-25T17:11:09.105Z,98124.66
2019-01-25T17:13:40.926Z,98126.66
2019-01-25T17:16:13.964Z,98140.33
2019-01-25T17:18:45.947Z,98143.73
2019-01-25T17:21:17.841Z,98143.67
2019-01-25T17:23:57.200Z,98141.98
2019-01-25T17:26:31.912Z,98141.21
2019-01-25T17:29:03.982Z,98138.70
2019-01-25T17:31:35.884Z,98140.22
2019-01-25T17:34:07.746Z,98137.19
2019-01-25T17:36:39.851Z,98135.55
2019-01-25T17:39:17.459Z,98135.61
2019-01-25T17:41:49.365Z,98124.54
2019-01-25T17:44:21.177Z,98127.69
2019-01-25T17:46:56.150Z,98115.35
2019-01-25T17:49:27.985Z,98116.80
2019-01-25T17:51:59.898Z,98119.06
2019-01-25T17:54:31.711Z,98121.90
2019-01-25T17:57:03.850Z,98129.91
2019-01-25T17:59:35.681Z,98135.00
2019-01-25T18:02:09.098Z,98136.17
2019-01-25T18:04:41.041Z,98138.75
2019-01-25T18:07:12.943Z,98129.80
2019-01-25T18:09:47.413Z,98131.09
2019-01-25T18:12:19.414Z,98136.17
2019-01-25T18:14:51.254Z,98133.14
2019-01-25T18:17:23.108Z,98133.95
2019-01-25T18:19:54.996Z,98127.89
2019-01-25T18:22:29.381Z,98132.09
2019-01-25T18:25:01.393Z,98137.64
2019-01-25T18:27:33.348Z,98139.70
2019-01-25T18:30:12.870Z,98144.96
2019-01-25T18:32:46.912Z,98145.86
2019-01-25T18:35:18.775Z,98138.40
2019-01-25T18:37:50.753Z,98146.48
2019-01-25T18:40:23.739Z,98140.48
2019-01-25T18:42:55.700Z,98143.83
2019-01-25T18:45:28.689Z,98127.48
2019-01-25T18:48:00.515Z,98126.50
2019-01-25T18:50:32.422Z,98129.69
2019-01-25T18:53:04.375Z,98126.08
2019-01-25T18:55:36.562Z,98136.87
2019-01-25T18:58:08.409Z,98139.98
2019-01-25T19:00:40.306Z,98128.17
2019-01-25T19:03:12.173Z,98136.38
2019-01-25T19:05:44.158Z,98124.06
2019-01-25T19:08:15.990Z,98112.09
2019-01-25T19:10:47.963Z,98099.66
2019-01-25T19:13:19.854Z,98087.19
2019-01-25T19:15:51.723Z,98095.87
2019-01-25T19:18:23.554Z,98095.77
2019-01-25T19:20:55.418Z,98101.61
2019-01-25T19:23:27.298Z,98099.14
2019-01-25T19:25:59.190Z,98101.09
2019-01-25T19:28:31.063Z,98101.77
2019-01-25T19:31:02.927Z,98097.35
2019-01-25T19:33:34.902Z,98092.82
2019-01-25T19:36:07.092Z,98093.44
2019-01-25T19:38:38.948Z,98104.23
2019-01-25T19:41:10.810Z,98094.97
2019-01-25T19:43:42.678Z,98095.28
2019-01-25T19:46:14.617Z,98097.25
2019-01-25T19:48:46.586Z,98101.88
2019-01-25T19:51:18.439Z,98102.95
2019-01-25T19:53:51.574Z,98094.84
2019-01-25T19:56:29.241Z,98095.19
2019-01-25T19:59:03.223Z,98096.72
2019-01-25T20:01:37.407Z,98102.34
2019-01-25T20:04:10.894Z,98098.21
2019-01-25T20:06:43.002Z,98098.69
2019-01-25T20:09:16.524Z,98101.61
2019-01-25T20:11:56.610Z,98112.47
2019-01-25T20:14:30.668Z,98125.32
2019-01-25T20:17:02.510Z,98131.07
2019-01-25T20:19:36.013Z,98124.70
2019-01-25T20:22:10.590Z,98115.55
2019-01-25T20:24:44.922Z,98112.30
2019-01-25T20:27:21.657Z,98116.47
2019-01-25T20:29:53.168Z,98115.65
2019-01-25T20:32:25.112Z,98103.20
2019-01-25T20:34:59.139Z,98100.64
2019-01-25T20:37:34.801Z,98102.17
2019-01-25T20:40:10.784Z,98101.92
2019-01-25T20:42:44.096Z,98114.98
2019-01-25T20:45:27.908Z,98123.16
2019-01-25T20:48:02.447Z,98117.87
2019-01-25T20:50:41.974Z,98114.06
2019-01-25T20:53:17.728Z,98101.37
2019-01-25T20:55:49.618Z,98096.37
2019-01-25T20:58:23.754Z,98092.38
2019-01-25T21:00:56.094Z,98088.09
2019-01-25T21:03:28.131Z,98087.19
2019-01-25T21:06:02.415Z,98083.48
2019-01-25T21:08:35.278Z,98072.78
2019-01-25T21:11:07.396Z,98076.18
2019-01-25T21:13:43.379Z,98071.75
2019-01-25T21:16:19.327Z,98067.95
2019-01-25T21:18:51.184Z,98069.08
2019-01-25T21:21:25.453Z,98066.73
2019-01-25T21:24:00.300Z,98061.22
2019-01-25T21:26:32.129Z,98054.08
2019-01-25T21:29:06.923Z,98055.20
2019-01-25T21:31:41.589Z,98052.58
2019-01-25T21:34:13.470Z,98053.97
2019-01-25T21:36:49.488Z,98046.58
2019-01-25T21:39:24.900Z,98042.52
2019-01-25T21:41:56.710Z,98040.92
2019-01-25T21:44:40.270Z,98036.65
2019-01-25T21:47:15.505Z,98038.09
2019-01-25T21:49:49.135Z,98033.11
2019-01-25T21:52:23.008Z,98029.25
2019-01-25T21:54:54.975Z,98021.41
2019-01-25T21:57:26.825Z,98024.99
2019-01-25T22:00:08.788Z,98023.30
2019-01-25T22:02:42.494Z,98027.61
2019-01-25T22:05:14.348Z,98029.93
2019-01-25T22:07:46.286Z,98031.99
2019-01-25T22:10:29.727Z,98024.74
2019-01-25T22:13:04.465Z,98024.55
2019-01-25T22:15:40.730Z,98024.33
2019-01-25T22:18:12.585Z,98018.07
2019-01-25T22:20:45.266Z,98016.84
2019-01-25T22:23:23.687Z,98009.69
2019-01-25T22:25:55.537Z,98001.98
2019-01-25T22:28:27.420Z,98002.39
2019-01-25T22:31:04.758Z,98001.27
2019-01-25T22:33:39.686Z,98001.31
2019-01-25T22:36:12.943Z,97998.03
2019-01-25T22:38:49.288Z,97999.22
2019-01-25T22:41:20.830Z,97999.52
2019-01-25T22:43:58.584Z,98007.08
2019-01-25T22:46:30.440Z,98001.11
2019-01-25T22:49:02.275Z,97995.22
2019-01-25T22:51:38.547Z,97991.41
2019-01-25T22:54:12.923Z,97990.23
2019-01-25T22:56:56.177Z,97994.69
2019-01-25T22:59:30.708Z,97990.03
2019-01-25T23:02:04.180Z,97989.55
2019-01-25T23:05:29.661Z,97991.51
2019-01-25T23:08:04.374Z,97993.47
2019-01-25T23:10:40.160Z,97989.30
2019-01-25T23:13:14.483Z,97992.22
2019-01-25T23:15:49.409Z,97984.05
2019-01-25T23:18:21.273Z,97975.36
2019-01-25T23:20:53.126Z,97974.69
2019-01-25T23:23:27.029Z,97966.30
2019-01-25T23:25:58.839Z,97963.02
2019-01-25T23:28:39.500Z,97955.14
2019-01-25T23:31:11.366Z,97954.41
2019-01-25T23:33:43.201Z,97951.19
2019-01-25T23:36:15.030Z,97951.95
2019-01-25T23:38:46.876Z,97946.47
2019-01-25T23:41:20.801Z,97949.67
2019-01-25T23:43:53.960Z,97945.52
2019-01-25T23:46:25.870Z,97949.06
2019-01-25T23:48:57.693Z,97944.69
2019-01-25T23:51:30.752Z,97939.00
2019-01-25T23:54:06.870Z,97940.40
2019-01-25T23:56:44.114Z,97934.14
2019-01-25T23:59:17.030Z,97933.08
